createdAt,value
2019-03-08T00:00:25.737Z,9.28
2019-03-08T00:02:54.323Z,10.03
2019-03-08T00:05:25.417Z,11.00
2019-03-08T00:07:53.902Z,11.08
2019-03-08T00:10:23.866Z,9.95
2019-03-08T00:12:52.324Z,10.68
2019-03-08T00:15:21.000Z,12.53
2019-03-08T00:17:49.456Z,7.00
2019-03-08T00:20:18.152Z,8.78
2019-03-08T00:22:48.207Z,10.10
2019-03-08T00:25:16.890Z,12.25
2019-03-08T00:27:45.401Z,9.63
2019-03-08T00:30:15.644Z,8.95
2019-03-08T00:32:44.468Z,11.12
2019-03-08T00:35:13.743Z,12.07
2019-03-08T00:37:42.290Z,12.78
2019-03-08T00:40:15.165Z,9.18
2019-03-08T00:42:43.659Z,14.23
2019-03-08T00:45:14.294Z,12.75
2019-03-08T00:47:43.662Z,13.85
2019-03-08T00:50:14.017Z,10.43
2019-03-08T00:52:42.683Z,8.13
2019-03-08T00:55:12.323Z,13.98
2019-03-08T00:57:40.945Z,12.85
2019-03-08T01:00:15.841Z,13.62
2019-03-08T01:02:45.262Z,12.10
2019-03-08T01:05:18.484Z,14.58
2019-03-08T01:07:49.375Z,13.80
2019-03-08T01:10:20.085Z,10.43
2019-03-08T01:12:50.389Z,13.95
2019-03-08T01:15:19.213Z,16.15
2019-03-08T01:17:47.945Z,12.37
2019-03-08T01:20:18.499Z,14.50
2019-03-08T01:22:47.144Z,16.45
2019-03-08T01:25:16.789Z,14.50
2019-03-08T01:28:00.213Z,15.58
2019-03-08T01:30:28.942Z,16.67
2019-03-08T01:32:57.417Z,19.77
2019-03-08T01:35:26.203Z,16.95
2019-03-08T01:37:54.989Z,17.40
2019-03-08T01:40:24.806Z,19.27
2019-03-08T01:42:53.405Z,18.62
2019-03-08T01:45:22.182Z,20.02
2019-03-08T01:47:50.664Z,18.73
2019-03-08T01:50:19.569Z,20.37
2019-03-08T01:52:48.379Z,20.45
2019-03-08T01:55:17.231Z,18.35
2019-03-08T01:57:45.697Z,18.50
2019-03-08T02:00:19.502Z,21.20
2019-03-08T02:02:48.407Z,18.07
2019-03-08T02:05:17.413Z,19.77
2019-03-08T02:07:46.801Z,17.12
2019-03-08T02:10:16.893Z,20.45
2019-03-08T02:12:46.938Z,19.25
2019-03-08T02:15:17.400Z,18.57
2019-03-08T02:17:46.893Z,18.77
2019-03-08T02:20:18.058Z,21.70
2019-03-08T02:22:47.094Z,22.90
2019-03-08T02:25:16.391Z,22.87
2019-03-08T02:27:45.083Z,23.73
2019-03-08T02:30:15.643Z,23.98
2019-03-08T02:32:44.785Z,24.07
2019-03-08T02:35:14.979Z,21.37
2019-03-08T02:37:44.023Z,23.18
2019-03-08T02:40:31.571Z,23.02
2019-03-08T02:43:02.384Z,23.40
2019-03-08T02:45:33.361Z,21.65
2019-03-08T02:48:01.943Z,27.73
2019-03-08T02:50:30.570Z,26.85
2019-03-08T02:52:59.264Z,23.95
2019-03-08T02:55:27.879Z,22.93
2019-03-08T02:57:56.524Z,20.00
2019-03-08T03:00:31.359Z,21.02
2019-03-08T03:02:59.844Z,21.45
2019-03-08T03:05:28.461Z,19.07
2019-03-08T03:07:58.716Z,22.52
2019-03-08T03:10:27.212Z,16.73
2019-03-08T03:12:55.708Z,16.57
2019-03-08T03:15:25.157Z,14.53
2019-03-08T03:17:53.628Z,15.70
2019-03-08T03:20:41.043Z,15.68
2019-03-08T03:23:09.908Z,18.95
2019-03-08T03:25:38.412Z,16.48
2019-03-08T03:28:07.866Z,17.02
2019-03-08T03:30:36.397Z,15.95
2019-03-08T03:33:05.767Z,17.90
2019-03-08T03:35:34.471Z,15.10
2019-03-08T03:38:05.563Z,14.83
2019-03-08T03:40:35.128Z,15.18
2019-03-08T03:43:03.778Z,16.73
2019-03-08T03:45:33.371Z,14.83
2019-03-08T03:48:01.853Z,15.05
2019-03-08T03:50:30.590Z,17.23
2019-03-08T03:52:59.358Z,15.38
2019-03-08T03:55:29.311Z,16.40
2019-03-08T03:57:58.027Z,16.77
2019-03-08T04:00:26.570Z,16.65
2019-03-08T04:02:55.378Z,14.60
2019-03-08T04:05:24.026Z,15.48
2019-03-08T04:07:52.491Z,14.95
2019-03-08T04:10:22.726Z,16.57
2019-03-08T04:12:51.270Z,15.78
2019-03-08T04:15:23.079Z,13.88
2019-03-08T04:17:52.949Z,13.65
2019-03-08T04:20:21.955Z,16.15
2019-03-08T04:22:50.481Z,15.25
2019-03-08T04:25:19.165Z,13.95
2019-03-08T04:27:47.719Z,15.95
2019-03-08T04:30:20.846Z,16.52
2019-03-08T04:32:49.387Z,13.90
2019-03-08T04:35:18.047Z,15.70
2019-03-08T04:37:46.616Z,18.67
2019-03-08T04:40:15.596Z,19.07
2019-03-08T04:42:44.300Z,17.07
2019-03-08T04:45:15.744Z,16.87
2019-03-08T04:47:44.358Z,17.05
2019-03-08T04:50:16.116Z,14.95
2019-03-08T04:52:45.072Z,18.30
2019-03-08T04:55:18.080Z,16.93
2019-03-08T04:57:47.062Z,13.80
2019-03-08T05:00:19.093Z,13.00
2019-03-08T05:02:50.599Z,15.20
2019-03-08T05:05:19.310Z,13.62
2019-03-08T05:07:47.937Z,15.58
2019-03-08T05:10:18.045Z,12.60
2019-03-08T05:12:48.967Z,10.38
2019-03-08T05:15:20.738Z,10.63
2019-03-08T05:17:52.119Z,11.25
2019-03-08T05:20:21.973Z,9.63
2019-03-08T05:22:52.689Z,8.85
2019-03-08T05:25:21.469Z,14.93
2019-03-08T05:27:50.073Z,11.70
2019-03-08T05:30:18.991Z,13.38
2019-03-08T05:32:48.682Z,14.38
2019-03-08T05:35:19.075Z,14.75
2019-03-08T05:37:50.491Z,12.00
2019-03-08T05:40:20.786Z,12.63
2019-03-08T05:42:49.263Z,12.35
2019-03-08T05:45:37.123Z,10.38
2019-03-08T05:48:05.863Z,13.75
2019-03-08T05:50:34.428Z,8.88
2019-03-08T05:53:02.892Z,9.30
2019-03-08T05:55:31.465Z,11.38
2019-03-08T05:58:01.485Z,6.35
2019-03-08T06:00:35.251Z,10.45
2019-03-08T06:03:04.265Z,4.35
2019-03-08T06:05:34.923Z,5.05
2019-03-08T06:08:03.464Z,4.20
2019-03-08T06:10:34.029Z,6.75
2019-03-08T06:13:03.934Z,7.00
2019-03-08T06:15:32.472Z,9.90
2019-03-08T06:18:01.118Z,8.73
2019-03-08T06:20:29.862Z,11.30
2019-03-08T06:23:04.580Z,13.18
2019-03-08T06:25:33.296Z,13.65
2019-03-08T06:28:01.849Z,13.40
2019-03-08T06:30:30.406Z,8.40
2019-03-08T06:32:58.883Z,13.20
2019-03-08T06:35:30.488Z,16.32
2019-03-08T06:37:59.091Z,11.10
2019-03-08T06:40:29.190Z,8.15
2019-03-08T06:42:57.677Z,13.08
2019-03-08T06:45:26.232Z,10.23
2019-03-08T06:47:55.300Z,14.85
2019-03-08T06:50:23.894Z,17.70
2019-03-08T06:52:52.419Z,15.63
2019-03-08T06:55:22.696Z,18.02
2019-03-08T06:58:00.233Z,15.55
2019-03-08T07:00:33.428Z,22.73
2019-03-08T07:03:02.095Z,28.27
2019-03-08T07:05:31.628Z,23.57
2019-03-08T07:08:00.200Z,22.90
2019-03-08T07:10:28.730Z,25.92
2019-03-08T07:13:03.385Z,27.20
2019-03-08T07:15:29.956Z,23.20
2019-03-08T07:17:58.846Z,25.35
2019-03-08T07:20:34.594Z,24.67
2019-03-08T07:23:04.730Z,28.27
2019-03-08T07:25:50.958Z,27.00
2019-03-08T07:28:14.111Z,30.20
2019-03-08T07:30:44.295Z,29.50
2019-03-08T07:33:17.327Z,35.68
2019-03-08T07:35:59.879Z,40.78
2019-03-08T07:38:29.972Z,37.38
2019-03-08T07:41:03.064Z,35.65
2019-03-08T07:43:36.154Z,31.27
2019-03-08T07:46:24.404Z,32.58
2019-03-08T07:48:56.077Z,31.33
2019-03-08T07:51:28.677Z,39.85
2019-03-08T07:54:11.161Z,36.45
2019-03-08T07:56:41.269Z,31.55
2019-03-08T07:59:20.261Z,41.55
2019-03-08T08:01:56.116Z,41.25
2019-03-08T08:04:44.901Z,42.30
2019-03-08T08:07:31.011Z,57.67
2019-03-08T08:10:03.791Z,53.28
2019-03-08T08:12:36.618Z,58.73
2019-03-08T08:15:18.863Z,49.23
2019-03-08T08:17:54.579Z,44.33
2019-03-08T08:20:25.015Z,46.75
2019-03-08T08:22:55.122Z,55.85
2019-03-08T08:25:40.579Z,45.05
2019-03-08T08:28:27.659Z,42.48
2019-03-08T08:31:02.777Z,39.53
2019-03-08T08:33:48.881Z,43.13
2019-03-08T08:36:25.449Z,50.70
2019-03-08T08:38:58.569Z,46.55
2019-03-08T08:41:31.513Z,35.30
2019-03-08T08:44:01.754Z,38.60
2019-03-08T08:46:48.373Z,38.55
2019-03-08T08:49:37.755Z,36.77
2019-03-08T08:52:21.578Z,49.20
2019-03-08T08:54:51.676Z,59.45
2019-03-08T08:57:27.840Z,42.05
2019-03-08T08:59:57.955Z,35.23
2019-03-08T09:05:35.560Z,42.53
2019-03-08T09:08:14.905Z,37.03
2019-03-08T09:10:49.138Z,29.75
2019-03-08T09:13:19.301Z,35.03
2019-03-08T09:15:52.134Z,35.50
2019-03-08T09:18:24.975Z,35.05
2019-03-08T09:20:58.054Z,32.15
2019-03-08T09:23:28.188Z,37.95
2019-03-08T09:26:15.832Z,31.97
2019-03-08T09:28:54.411Z,33.30
2019-03-08T09:31:39.572Z,31.65
2019-03-08T09:34:09.750Z,30.85
2019-03-08T09:36:42.413Z,36.58
2019-03-08T09:39:28.585Z,30.62
2019-03-08T09:41:58.758Z,34.30
2019-03-08T09:44:45.464Z,28.45
2019-03-08T09:47:16.698Z,26.57
2019-03-08T09:49:51.794Z,28.27
2019-03-08T09:52:26.386Z,27.73
2019-03-08T09:55:02.261Z,30.48
2019-03-08T09:57:41.900Z,27.40
2019-03-08T10:00:16.666Z,27.90
2019-03-08T10:08:39.682Z,30.77
2019-03-08T10:11:09.812Z,32.13
2019-03-08T10:13:42.657Z,20.90
2019-03-08T10:16:18.315Z,31.27
2019-03-08T10:18:48.453Z,29.70
2019-03-08T10:21:21.296Z,25.08
2019-03-08T10:23:51.653Z,33.00
2019-03-08T10:26:21.872Z,29.75
2019-03-08T10:28:52.005Z,27.58
2019-03-08T10:31:22.181Z,29.48
2019-03-08T10:33:55.314Z,28.83
2019-03-08T10:36:37.700Z,28.75
2019-03-08T10:39:09.842Z,26.12
2019-03-08T10:41:40.028Z,29.32
2019-03-08T10:44:28.434Z,30.75
2019-03-08T10:47:16.922Z,27.67
2019-03-08T10:49:55.401Z,26.45
2019-03-08T10:52:30.216Z,22.55
2019-03-08T10:55:05.731Z,26.33
2019-03-08T10:57:38.793Z,25.90
2019-03-08T11:00:15.144Z,23.00
2019-03-08T11:02:48.256Z,26.33
2019-03-08T11:05:18.971Z,27.90
2019-03-08T11:07:58.243Z,25.52
2019-03-08T11:10:31.701Z,24.23
2019-03-08T11:13:01.969Z,25.52
2019-03-08T11:15:35.026Z,24.35
2019-03-08T11:18:05.153Z,22.30
2019-03-08T11:20:47.352Z,23.55
2019-03-08T11:23:17.541Z,21.52
2019-03-08T11:25:50.034Z,26.60
2019-03-08T11:28:21.304Z,21.07
2019-03-08T11:30:54.753Z,20.70
2019-03-08T11:33:30.481Z,19.25
2019-03-08T11:36:15.401Z,19.95
2019-03-08T11:38:48.329Z,19.45
2019-03-08T11:41:24.199Z,24.60
2019-03-08T11:43:56.756Z,21.68
2019-03-08T11:46:29.425Z,22.25
2019-03-08T11:48:59.617Z,22.50
2019-03-08T11:51:29.744Z,21.62
2019-03-08T11:54:52.910Z,22.73
2019-03-08T11:57:31.867Z,21.68
2019-03-08T12:02:50.391Z,19.20
2019-03-08T12:05:36.667Z,24.20
2019-03-08T12:08:09.879Z,20.17
2019-03-08T12:10:42.977Z,20.17
2019-03-08T12:13:14.624Z,18.87
2019-03-08T12:15:44.951Z,21.45
2019-03-08T12:18:22.074Z,19.67
2019-03-08T12:20:57.007Z,21.93
2019-03-08T12:23:31.130Z,18.00
2019-03-08T12:26:07.559Z,20.97
2019-03-08T12:28:40.721Z,28.15
2019-03-08T12:31:26.218Z,22.25
2019-03-08T12:34:49.018Z,23.92
2019-03-08T12:37:19.160Z,22.60
2019-03-08T12:39:55.217Z,22.65
2019-03-08T12:42:31.455Z,27.60
2019-03-08T12:45:12.582Z,19.40
2019-03-08T12:48:02.111Z,22.77
2019-03-08T12:50:32.229Z,21.33
2019-03-08T12:53:02.354Z,24.12
2019-03-08T12:55:41.298Z,20.37
2019-03-08T12:58:25.135Z,20.35
2019-03-08T13:01:05.554Z,18.87
2019-03-08T13:03:35.679Z,19.10
2019-03-08T13:06:08.742Z,23.10
2019-03-08T13:08:47.822Z,18.37
2019-03-08T13:11:16.320Z,18.25
2019-03-08T13:13:44.881Z,15.88
2019-03-08T13:16:13.756Z,17.73
2019-03-08T13:18:42.297Z,20.85
2019-03-08T13:21:10.792Z,19.52
2019-03-08T13:23:39.365Z,18.92
2019-03-08T13:26:07.871Z,16.73
2019-03-08T13:28:36.343Z,18.37
2019-03-08T13:31:05.089Z,19.00
2019-03-08T13:33:34.532Z,20.77
2019-03-08T13:36:03.036Z,21.00
2019-03-08T13:38:31.570Z,20.48
2019-03-08T13:41:00.104Z,17.77
2019-03-08T13:43:31.348Z,16.25
2019-03-08T13:45:59.847Z,17.17
2019-03-08T13:48:28.425Z,13.93
2019-03-08T13:50:56.966Z,18.52
2019-03-08T13:53:25.470Z,15.88
2019-03-08T13:55:54.022Z,14.60
2019-03-08T13:58:22.555Z,13.68
2019-03-08T14:00:51.100Z,14.70
2019-03-08T14:03:21.242Z,15.18
2019-03-08T14:05:52.531Z,14.90
2019-03-08T14:08:21.194Z,15.18
2019-03-08T14:10:49.706Z,13.72
2019-03-08T14:13:18.391Z,17.12
2019-03-08T14:15:46.859Z,15.75
2019-03-08T14:18:16.881Z,13.55
2019-03-08T14:20:45.577Z,13.55
2019-03-08T14:23:14.080Z,19.12
2019-03-08T14:25:47.639Z,13.98
2019-03-08T14:28:15.825Z,18.80
2019-03-08T14:30:57.534Z,24.12
2019-03-08T14:33:19.529Z,25.43
2019-03-08T14:35:51.108Z,15.78
2019-03-08T14:38:19.676Z,18.98
2019-03-08T14:40:53.402Z,19.67
2019-03-08T14:43:21.675Z,18.48
2019-03-08T14:45:54.610Z,19.62
2019-03-08T14:48:23.734Z,22.98
2019-03-08T14:50:52.199Z,20.12
2019-03-08T14:53:20.755Z,15.58
2019-03-08T14:55:49.524Z,21.10
2019-03-08T14:58:20.869Z,17.25
2019-03-08T15:00:49.409Z,20.00
2019-03-08T15:03:20.120Z,18.20
2019-03-08T15:05:51.186Z,17.85
2019-03-08T15:08:19.282Z,19.52
2019-03-08T15:10:51.145Z,15.35
2019-03-08T15:13:20.150Z,20.27
2019-03-08T15:15:48.573Z,17.67
2019-03-08T15:18:21.502Z,18.55
2019-03-08T15:20:54.861Z,21.95
2019-03-08T15:23:23.230Z,19.85
2019-03-08T15:25:51.870Z,18.35
2019-03-08T15:28:20.336Z,21.27
2019-03-08T15:30:48.820Z,17.37
2019-03-08T15:33:17.283Z,21.48
2019-03-08T15:35:45.751Z,16.80
2019-03-08T15:38:14.289Z,21.40
2019-03-08T15:40:42.841Z,16.57
2019-03-08T15:43:13.634Z,17.48
2019-03-08T15:45:44.398Z,15.60
2019-03-08T15:48:14.631Z,18.90
2019-03-08T15:50:46.744Z,17.85
2019-03-08T15:53:14.503Z,23.07
2019-03-08T15:55:52.438Z,17.20
2019-03-08T15:58:13.705Z,18.17
2019-03-08T16:00:45.345Z,22.17
2019-03-08T16:03:13.912Z,19.45
2019-03-08T16:05:42.714Z,18.00
2019-03-08T16:08:11.614Z,19.23
2019-03-08T16:10:44.941Z,20.32
2019-03-08T16:13:13.774Z,15.83
2019-03-08T16:15:42.533Z,28.32
2019-03-08T16:18:13.476Z,15.30
2019-03-08T16:20:42.197Z,18.12
2019-03-08T16:23:11.178Z,23.25
2019-03-08T16:25:41.065Z,20.17
2019-03-08T16:28:14.917Z,16.93
2019-03-08T16:30:52.792Z,26.55
2019-03-08T16:33:25.533Z,15.88
2019-03-08T16:35:57.562Z,14.47
2019-03-08T16:38:31.060Z,17.15
2019-03-08T16:41:16.117Z,21.65
2019-03-08T16:43:54.059Z,21.40
2019-03-08T16:46:29.554Z,18.05
2019-03-08T16:49:05.519Z,16.48
2019-03-08T16:51:51.964Z,20.72
2019-03-08T16:54:27.580Z,20.35
2019-03-08T16:57:03.902Z,15.40
2019-03-08T16:59:43.796Z,20.68
2019-03-08T17:02:16.802Z,17.85
2019-03-08T17:04:58.842Z,15.72
2019-03-08T17:07:29.546Z,15.78
2019-03-08T17:10:08.911Z,19.00
2019-03-08T17:12:41.791Z,15.58
2019-03-08T17:15:13.899Z,14.87
2019-03-08T17:18:00.229Z,16.37
2019-03-08T17:20:36.525Z,17.50
2019-03-08T17:23:06.943Z,15.25
2019-03-08T17:25:38.930Z,20.60
2019-03-08T17:28:17.978Z,17.87
2019-03-08T17:30:51.023Z,13.35
2019-03-08T17:33:26.999Z,14.23
2019-03-08T17:35:59.614Z,17.07
2019-03-08T17:38:29.774Z,16.97
2019-03-08T17:41:18.010Z,18.95
2019-03-08T17:43:50.825Z,18.10
2019-03-08T17:46:20.955Z,12.63
2019-03-08T17:48:55.285Z,14.47
2019-03-08T17:51:42.717Z,17.60
2019-03-08T17:54:24.250Z,19.25
2019-03-08T17:57:10.899Z,16.25
2019-03-08T17:59:44.209Z,19.62
2019-03-08T18:02:25.374Z,23.38
2019-03-08T18:05:05.847Z,19.75
2019-03-08T18:07:52.386Z,18.75
2019-03-08T18:10:23.223Z,17.52
2019-03-08T18:12:55.757Z,14.10
2019-03-08T18:15:32.395Z,16.77
2019-03-08T18:18:05.721Z,16.20
2019-03-08T18:20:41.836Z,16.15
2019-03-08T18:23:14.527Z,18.82
2019-03-08T18:25:44.645Z,21.45
2019-03-08T18:28:30.639Z,16.67
2019-03-08T18:31:03.073Z,16.57
2019-03-08T18:37:03.991Z,15.93
2019-03-08T18:39:45.820Z,18.15
2019-03-08T18:42:15.906Z,15.95
2019-03-08T18:44:48.998Z,19.92
2019-03-08T18:47:19.149Z,20.08
2019-03-08T18:49:49.253Z,18.00
2019-03-08T18:52:35.811Z,20.65
2019-03-08T18:55:23.878Z,14.83
2019-03-08T18:58:10.376Z,19.17
2019-03-08T19:00:40.491Z,19.30
2019-03-08T19:03:25.695Z,17.73
2019-03-08T19:06:05.173Z,23.27
2019-03-08T19:08:40.956Z,18.40
2019-03-08T19:11:11.075Z,19.40
2019-03-08T19:13:49.460Z,16.20
2019-03-08T19:16:19.569Z,21.25
2019-03-08T19:19:01.857Z,17.32
2019-03-08T19:21:41.975Z,18.32
2019-03-08T19:24:23.655Z,17.95
2019-03-08T19:27:02.270Z,21.25
2019-03-08T19:29:49.046Z,21.07
2019-03-08T19:32:19.188Z,24.00
2019-03-08T19:34:58.588Z,28.07
2019-03-08T19:37:32.353Z,22.73
2019-03-08T19:40:11.516Z,23.60
2019-03-08T19:42:42.897Z,21.48
2019-03-08T19:45:25.335Z,23.55
2019-03-08T19:47:58.823Z,23.50
2019-03-08T19:50:32.051Z,20.90
2019-03-08T19:53:11.580Z,20.48
2019-03-08T19:55:41.787Z,22.65
2019-03-08T19:58:23.996Z,19.75
2019-03-08T20:01:06.201Z,30.60
2019-03-08T20:03:48.578Z,23.83
2019-03-08T20:06:24.477Z,25.72
2019-03-08T20:08:54.684Z,22.73
2019-03-08T20:11:33.581Z,27.32
2019-03-08T20:14:06.388Z,23.02
2019-03-08T20:16:51.470Z,20.17
2019-03-08T20:22:00.994Z,17.10
2019-03-08T20:24:46.492Z,24.92
2019-03-08T20:27:33.107Z,20.20
2019-03-08T20:30:12.603Z,24.77
2019-03-08T20:32:45.510Z,23.25
2019-03-08T20:35:24.925Z,21.30
2019-03-08T20:38:13.217Z,23.90
2019-03-08T20:41:00.092Z,21.82
2019-03-08T20:43:34.006Z,23.92
2019-03-08T20:46:14.970Z,24.63
2019-03-08T20:48:43.232Z,30.50
2019-03-08T20:51:13.477Z,23.67
2019-03-08T20:53:41.980Z,21.93
2019-03-08T20:56:10.474Z,29.25
2019-03-08T20:58:38.976Z,21.95
2019-03-08T21:01:07.596Z,27.25
2019-03-08T21:03:39.259Z,19.77
2019-03-08T21:06:07.831Z,24.90
2019-03-08T21:08:41.306Z,23.35
2019-03-08T21:11:09.300Z,24.77
2019-03-08T21:13:37.772Z,25.57
2019-03-08T21:16:06.329Z,24.72
2019-03-08T21:18:36.411Z,27.27
2019-03-08T21:21:05.133Z,21.62
2019-03-08T21:23:36.184Z,22.65
2019-03-08T21:26:06.268Z,25.72
2019-03-08T21:28:34.835Z,21.37
2019-03-08T21:31:03.753Z,22.07
2019-03-08T21:33:34.298Z,23.60
2019-03-08T21:36:07.052Z,20.30
2019-03-08T21:38:35.553Z,21.70
2019-03-08T21:41:04.088Z,16.60
2019-03-08T21:43:32.578Z,25.70
2019-03-08T21:46:02.679Z,22.62
2019-03-08T21:48:31.148Z,20.77
2019-03-08T21:50:59.745Z,24.55
2019-03-08T22:00:32.258Z,17.77
2019-03-08T22:03:06.750Z,18.95
2019-03-08T22:05:32.634Z,21.70
2019-03-08T22:08:01.113Z,18.77
2019-03-08T22:10:34.271Z,18.15
2019-03-08T22:13:02.847Z,19.67
2019-03-08T22:15:31.382Z,22.75
2019-03-08T22:17:59.848Z,19.00
2019-03-08T22:20:28.480Z,16.40
2019-03-08T22:22:56.945Z,22.62
2019-03-08T22:25:26.112Z,20.97
2019-03-08T22:27:54.597Z,21.80
2019-03-08T22:30:23.211Z,17.77
2019-03-08T22:32:51.677Z,19.57
2019-03-08T22:35:26.525Z,26.27
2019-03-08T22:37:55.205Z,18.85
2019-03-08T22:40:23.778Z,19.00
2019-03-08T22:42:54.023Z,26.87
2019-03-08T22:45:22.617Z,21.75
2019-03-08T22:47:51.097Z,22.98
2019-03-08T22:50:34.065Z,16.75
2019-03-08T22:53:04.421Z,19.05
2019-03-08T22:55:33.121Z,21.07
2019-03-08T22:58:01.587Z,26.85
2019-03-08T23:00:55.579Z,20.32
2019-03-08T23:03:25.499Z,21.95
2019-03-08T23:05:54.059Z,24.02
2019-03-08T23:08:22.665Z,19.37
2019-03-08T23:10:51.331Z,20.72
2019-03-08T23:13:21.328Z,18.98
2019-03-08T23:15:51.508Z,18.98
2019-03-08T23:18:20.047Z,20.82
2019-03-08T23:20:48.483Z,29.05
2019-03-08T23:23:17.338Z,23.85
2019-03-08T23:25:45.879Z,16.35
2019-03-08T23:28:21.743Z,18.10
2019-03-08T23:30:58.407Z,18.57
2019-03-08T23:33:27.163Z,17.40
2019-03-08T23:35:57.525Z,20.80
2019-03-08T23:38:25.960Z,21.48
2019-03-08T23:40:56.700Z,19.60
2019-03-08T23:43:24.725Z,20.37
2019-03-08T23:45:53.383Z,17.35
2019-03-08T23:48:21.882Z,22.35
2019-03-08T23:50:51.888Z,17.05
2019-03-08T23:53:20.417Z,22.62
2019-03-08T23:55:48.859Z,21.73
2019-03-08T23:58:17.344Z,25.55
